sensor_id;sensor_type;location;lat;lon;timestamp;pressure;altitude;pressure_sealevel;temperature;humidity
12213;BME280;6169;44.158;22.788;2023-02-17T00:02:44;101969.44;;;6.54;55.46
12213;BME280;6169;44.158;22.788;2023-02-17T00:07:46;101950.13;;;6.75;53.54
12213;BME280;6169;44.158;22.788;2023-02-17T00:12:48;101950.25;;;6.57;54.17
12213;BME280;6169;44.158;22.788;2023-02-17T00:17:52;101946.75;;;6.81;53.80
12213;BME280;6169;44.158;22.788;2023-02-17T00:22:54;101954.84;;;6.89;53.49
12213;BME280;6169;44.158;22.788;2023-02-17T00:27:56;101952.16;;;6.89;53.14
12213;BME280;6169;44.158;22.788;2023-02-17T00:33:00;101960.69;;;6.60;54.07
12213;BME280;6169;44.158;22.788;2023-02-17T00:38:02;101961.78;;;7.08;52.42
12213;BME280;6169;44.158;22.788;2023-02-17T00:43:04;101943.59;;;7.10;51.43
12213;BME280;6169;44.158;22.788;2023-02-17T00:48:08;101951.81;;;6.92;52.28
12213;BME280;6169;44.158;22.788;2023-02-17T00:53:10;101947.78;;;6.80;52.66
12213;BME280;6169;44.158;22.788;2023-02-17T00:58:13;101935.16;;;7.05;52.29
12213;BME280;6169;44.158;22.788;2023-02-17T01:03:17;101946.13;;;7.20;51.25
12213;BME280;6169;44.158;22.788;2023-02-17T01:08:21;101917.47;;;7.27;50.93
12213;BME280;6169;44.158;22.788;2023-02-17T01:13:23;101921.50;;;7.39;50.59
12213;BME280;6169;44.158;22.788;2023-02-17T01:18:27;101920.34;;;7.58;49.25
12213;BME280;6169;44.158;22.788;2023-02-17T01:23:29;101922.34;;;7.32;50.75
12213;BME280;6169;44.158;22.788;2023-02-17T01:28:31;101913.38;;;7.72;51.08
12213;BME280;6169;44.158;22.788;2023-02-17T01:33:37;101914.75;;;7.60;50.57
12213;BME280;6169;44.158;22.788;2023-02-17T01:38:40;101905.28;;;7.80;53.49
12213;BME280;6169;44.158;22.788;2023-02-17T01:49:02;101911.47;;;8.28;50.55
12213;BME280;6169;44.158;22.788;2023-02-17T01:54:07;101859.31;;;7.97;49.54
12213;BME280;6169;44.158;22.788;2023-02-17T01:59:14;101884.09;;;8.09;50.35
12213;BME280;6169;44.158;22.788;2023-02-17T02:04:21;101877.53;;;8.03;49.93
12213;BME280;6169;44.158;22.788;2023-02-17T02:09:29;101876.50;;;8.04;49.62
12213;BME280;6169;44.158;22.788;2023-02-17T02:14:33;101872.84;;;7.89;49.51
12213;BME280;6169;44.158;22.788;2023-02-17T02:20:14;101859.13;;;7.67;50.66
12213;BME280;6169;44.158;22.788;2023-02-17T02:25:38;101856.41;;;7.75;50.79
12213;BME280;6169;44.158;22.788;2023-02-17T02:31:05;101857.16;;;7.92;49.93
12213;BME280;6169;44.158;22.788;2023-02-17T02:36:18;101853.50;;;7.77;50.94
12213;BME280;6169;44.158;22.788;2023-02-17T02:41:23;101848.81;;;8.10;51.38
12213;BME280;6169;44.158;22.788;2023-02-17T02:46:28;101848.22;;;8.92;48.98
12213;BME280;6169;44.158;22.788;2023-02-17T02:51:39;101851.97;;;9.06;48.81
12213;BME280;6169;44.158;22.788;2023-02-17T02:57:04;101841.72;;;9.39;48.19
12213;BME280;6169;44.158;22.788;2023-02-17T03:02:16;101849.56;;;9.63;48.25
12213;BME280;6169;44.158;22.788;2023-02-17T03:07:23;101859.88;;;9.90;47.06
12213;BME280;6169;44.158;22.788;2023-02-17T03:12:27;101851.94;;;10.39;45.46
12213;BME280;6169;44.158;22.788;2023-02-17T03:17:30;101865.09;;;9.91;45.13
12213;BME280;6169;44.158;22.788;2023-02-17T03:22:35;101855.50;;;9.59;45.83
12213;BME280;6169;44.158;22.788;2023-02-17T03:27:40;101869.22;;;9.05;46.97
12213;BME280;6169;44.158;22.788;2023-02-17T03:32:42;101859.63;;;9.02;46.84
12213;BME280;6169;44.158;22.788;2023-02-17T03:37:46;101852.53;;;9.39;46.22
12213;BME280;6169;44.158;22.788;2023-02-17T03:42:48;101767.31;;;8.75;45.82
12213;BME280;6169;44.158;22.788;2023-02-17T03:47:51;101863.53;;;9.67;44.49
12213;BME280;6169;44.158;22.788;2023-02-17T03:52:54;101886.56;;;9.48;44.31
12213;BME280;6169;44.158;22.788;2023-02-17T03:57:57;101892.88;;;9.40;44.09
12213;BME280;6169;44.158;22.788;2023-02-17T04:02:59;101901.78;;;9.49;44.04
12213;BME280;6169;44.158;22.788;2023-02-17T04:08:03;101915.81;;;9.07;44.91
12213;BME280;6169;44.158;22.788;2023-02-17T04:13:05;101919.44;;;8.99;44.85
12213;BME280;6169;44.158;22.788;2023-02-17T04:18:08;101908.09;;;9.41;43.79
12213;BME280;6169;44.158;22.788;2023-02-17T04:23:11;101912.94;;;9.46;43.47
12213;BME280;6169;44.158;22.788;2023-02-17T04:28:15;101916.97;;;9.65;42.23
12213;BME280;6169;44.158;22.788;2023-02-17T04:33:18;101920.22;;;9.46;43.46
12213;BME280;6169;44.158;22.788;2023-02-17T04:38:21;101907.06;;;9.57;43.26
12213;BME280;6169;44.158;22.788;2023-02-17T04:43:24;101912.47;;;9.43;43.27
12213;BME280;6169;44.158;22.788;2023-02-17T04:48:27;101912.03;;;9.69;42.43
12213;BME280;6169;44.158;22.788;2023-02-17T04:53:31;101912.09;;;9.46;43.38
12213;BME280;6169;44.158;22.788;2023-02-17T04:58:33;101920.69;;;8.42;46.26
12213;BME280;6169;44.158;22.788;2023-02-17T05:03:35;101925.31;;;8.57;46.54
12213;BME280;6169;44.158;22.788;2023-02-17T05:08:39;101919.84;;;9.11;44.46
12213;BME280;6169;44.158;22.788;2023-02-17T05:13:42;101925.97;;;9.80;43.57
12213;BME280;6169;44.158;22.788;2023-02-17T05:18:44;101929.66;;;9.50;43.54
12213;BME280;6169;44.158;22.788;2023-02-17T05:23:48;101935.84;;;9.21;44.59
12213;BME280;6169;44.158;22.788;2023-02-17T05:28:50;101938.00;;;9.93;42.79
12213;BME280;6169;44.158;22.788;2023-02-17T05:33:52;101942.00;;;9.82;43.14
12213;BME280;6169;44.158;22.788;2023-02-17T05:38:56;101946.09;;;10.07;42.46
12213;BME280;6169;44.158;22.788;2023-02-17T05:43:58;101950.22;;;10.03;42.43
12213;BME280;6169;44.158;22.788;2023-02-17T05:49:01;101952.53;;;10.06;41.99
12213;BME280;6169;44.158;22.788;2023-02-17T05:54:05;101957.41;;;10.11;41.91
12213;BME280;6169;44.158;22.788;2023-02-17T05:59:07;101962.00;;;10.47;40.89
12213;BME280;6169;44.158;22.788;2023-02-17T06:04:09;101963.59;;;10.41;41.67
12213;BME280;6169;44.158;22.788;2023-02-17T06:09:13;101974.41;;;10.71;41.40
12213;BME280;6169;44.158;22.788;2023-02-17T06:14:15;101988.59;;;10.73;41.36
12213;BME280;6169;44.158;22.788;2023-02-17T06:19:17;101993.50;;;10.84;40.98
12213;BME280;6169;44.158;22.788;2023-02-17T06:24:21;101981.56;;;10.42;42.47
12213;BME280;6169;44.158;22.788;2023-02-17T06:29:23;101987.81;;;10.58;42.10
12213;BME280;6169;44.158;22.788;2023-02-17T06:34:27;101986.47;;;10.68;42.99
12213;BME280;6169;44.158;22.788;2023-02-17T06:39:31;101985.72;;;10.74;43.45
12213;BME280;6169;44.158;22.788;2023-02-17T06:44:33;101983.03;;;10.96;43.49
12213;BME280;6169;44.158;22.788;2023-02-17T06:49:36;101985.41;;;11.27;42.92
12213;BME280;6169;44.158;22.788;2023-02-17T06:54:39;101991.50;;;11.57;42.07
12213;BME280;6169;44.158;22.788;2023-02-17T06:59:42;101981.81;;;11.76;41.46
12213;BME280;6169;44.158;22.788;2023-02-17T07:04:44;101987.50;;;11.81;41.85
12213;BME280;6169;44.158;22.788;2023-02-17T07:09:48;101983.84;;;11.89;41.41
12213;BME280;6169;44.158;22.788;2023-02-17T07:14:50;101982.38;;;11.93;40.72
12213;BME280;6169;44.158;22.788;2023-02-17T07:19:52;101986.09;;;12.20;39.94
12213;BME280;6169;44.158;22.788;2023-02-17T07:24:56;101996.47;;;13.06;38.75
12213;BME280;6169;44.158;22.788;2023-02-17T07:29:58;102001.50;;;13.23;38.33
12213;BME280;6169;44.158;22.788;2023-02-17T07:35:00;102006.66;;;12.97;38.33
12213;BME280;6169;44.158;22.788;2023-02-17T07:40:06;102005.91;;;13.30;38.86
12213;BME280;6169;44.158;22.788;2023-02-17T07:45:08;102018.44;;;13.91;37.70
12213;BME280;6169;44.158;22.788;2023-02-17T07:50:12;102015.28;;;14.21;38.52
12213;BME280;6169;44.158;22.788;2023-02-17T07:55:16;102007.50;;;14.24;37.72
12213;BME280;6169;44.158;22.788;2023-02-17T08:00:19;102020.66;;;14.47;36.26
12213;BME280;6169;44.158;22.788;2023-02-17T08:05:21;102025.06;;;14.48;34.04
12213;BME280;6169;44.158;22.788;2023-02-17T08:10:25;102032.78;;;14.58;32.19
12213;BME280;6169;44.158;22.788;2023-02-17T08:15:44;102030.97;;;14.84;32.71
12213;BME280;6169;44.158;22.788;2023-02-17T08:20:47;102026.44;;;15.09;31.55
12213;BME280;6169;44.158;22.788;2023-02-17T08:25:51;102020.28;;;15.52;31.30
12213;BME280;6169;44.158;22.788;2023-02-17T08:30:53;102020.72;;;15.17;31.33
12213;BME280;6169;44.158;22.788;2023-02-17T08:35:56;102024.16;;;15.13;31.43
12213;BME280;6169;44.158;22.788;2023-02-17T08:40:59;102024.50;;;15.48;31.08
12213;BME280;6169;44.158;22.788;2023-02-17T08:46:06;102022.16;;;15.27;31.44
12213;BME280;6169;44.158;22.788;2023-02-17T08:51:11;102029.47;;;15.33;31.30
12213;BME280;6169;44.158;22.788;2023-02-17T08:56:16;102041.78;;;15.67;31.75
12213;BME280;6169;44.158;22.788;2023-02-17T09:01:18;102042.75;;;15.22;32.03
12213;BME280;6169;44.158;22.788;2023-02-17T09:06:21;101997.91;;;15.05;31.35
12213;BME280;6169;44.158;22.788;2023-02-17T09:11:25;102043.97;;;15.58;31.37
12213;BME280;6169;44.158;22.788;2023-02-17T09:16:27;102038.00;;;15.11;32.26
12213;BME280;6169;44.158;22.788;2023-02-17T09:21:29;102047.19;;;15.49;32.02
12213;BME280;6169;44.158;22.788;2023-02-17T09:26:33;102054.25;;;15.63;31.48
12213;BME280;6169;44.158;22.788;2023-02-17T09:31:36;102035.13;;;15.63;32.40
12213;BME280;6169;44.158;22.788;2023-02-17T09:36:40;102070.31;;;15.71;31.31
12213;BME280;6169;44.158;22.788;2023-02-17T09:41:46;102050.97;;;16.60;30.59
12213;BME280;6169;44.158;22.788;2023-02-17T09:46:56;102049.44;;;16.64;30.03
12213;BME280;6169;44.158;22.788;2023-02-17T09:52:05;102052.25;;;16.39;30.41
12213;BME280;6169;44.158;22.788;2023-02-17T09:57:12;102060.47;;;16.39;29.97
12213;BME280;6169;44.158;22.788;2023-02-17T10:02:25;102051.56;;;16.06;30.16
12213;BME280;6169;44.158;22.788;2023-02-17T10:07:31;102049.69;;;16.44;29.56
12213;BME280;6169;44.158;22.788;2023-02-17T10:12:39;102032.97;;;16.70;30.05
12213;BME280;6169;44.158;22.788;2023-02-17T10:17:50;102027.47;;;17.19;29.49
12213;BME280;6169;44.158;22.788;2023-02-17T10:23:02;102030.03;;;16.84;29.53
12213;BME280;6169;44.158;22.788;2023-02-17T10:28:09;102018.28;;;17.13;29.15
12213;BME280;6169;44.158;22.788;2023-02-17T10:33:16;102021.44;;;16.98;29.58
12213;BME280;6169;44.158;22.788;2023-02-17T10:38:34;102007.06;;;17.68;28.87
12213;BME280;6169;44.158;22.788;2023-02-17T10:43:41;101975.25;;;17.44;28.53
12213;BME280;6169;44.158;22.788;2023-02-17T10:48:47;101999.59;;;17.22;28.91
12213;BME280;6169;44.158;22.788;2023-02-17T10:53:55;102004.41;;;17.50;28.34
12213;BME280;6169;44.158;22.788;2023-02-17T10:59:03;102012.75;;;17.43;28.07
12213;BME280;6169;44.158;22.788;2023-02-17T11:04:09;102002.56;;;17.20;27.76
12213;BME280;6169;44.158;22.788;2023-02-17T11:09:19;101999.69;;;17.69;27.47
12213;BME280;6169;44.158;22.788;2023-02-17T11:14:27;101994.63;;;17.42;26.76
12213;BME280;6169;44.158;22.788;2023-02-17T11:19:32;101997.09;;;17.86;26.41
12213;BME280;6169;44.158;22.788;2023-02-17T11:24:34;101997.75;;;18.28;26.59
12213;BME280;6169;44.158;22.788;2023-02-17T11:29:39;101975.50;;;18.42;26.51
12213;BME280;6169;44.158;22.788;2023-02-17T11:34:43;101971.81;;;18.48;25.80
12213;BME280;6169;44.158;22.788;2023-02-17T11:39:47;101970.56;;;18.55;25.60
12213;BME280;6169;44.158;22.788;2023-02-17T11:44:53;101963.69;;;18.41;25.48
12213;BME280;6169;44.158;22.788;2023-02-17T11:50:05;101953.38;;;18.89;25.28
12213;BME280;6169;44.158;22.788;2023-02-17T11:55:18;101953.88;;;18.86;24.60
12213;BME280;6169;44.158;22.788;2023-02-17T12:00:31;101938.16;;;18.98;24.55
12213;BME280;6169;44.158;22.788;2023-02-17T12:05:50;101926.94;;;18.83;23.86
12213;BME280;6169;44.158;22.788;2023-02-17T12:11:03;101932.34;;;19.45;23.75
12213;BME280;6169;44.158;22.788;2023-02-17T12:16:20;101927.19;;;19.65;23.21
12213;BME280;6169;44.158;22.788;2023-02-17T12:21:42;101910.03;;;19.41;23.00
12213;BME280;6169;44.158;22.788;2023-02-17T12:26:47;101914.63;;;19.19;22.52
12213;BME280;6169;44.158;22.788;2023-02-17T12:32:03;101900.63;;;19.93;23.14
12213;BME280;6169;44.158;22.788;2023-02-17T12:37:16;101905.34;;;19.76;21.99
12213;BME280;6169;44.158;22.788;2023-02-17T12:42:21;101895.22;;;19.42;22.89
12213;BME280;6169;44.158;22.788;2023-02-17T12:47:29;101886.47;;;19.84;22.24
12213;BME280;6169;44.158;22.788;2023-02-17T12:52:37;101899.91;;;20.25;21.83
12213;BME280;6169;44.158;22.788;2023-02-17T12:57:44;101892.50;;;20.03;21.79
12213;BME280;6169;44.158;22.788;2023-02-17T13:02:49;101886.72;;;20.05;22.07
12213;BME280;6169;44.158;22.788;2023-02-17T13:07:56;101895.53;;;19.80;22.01
12213;BME280;6169;44.158;22.788;2023-02-17T13:13:03;101894.22;;;20.09;21.43
12213;BME280;6169;44.158;22.788;2023-02-17T13:18:12;101886.78;;;20.10;21.34
12213;BME280;6169;44.158;22.788;2023-02-17T13:23:29;101874.41;;;19.85;22.20
12213;BME280;6169;44.158;22.788;2023-02-17T13:28:33;101871.13;;;20.10;21.83
12213;BME280;6169;44.158;22.788;2023-02-17T13:33:43;101871.56;;;20.24;21.46
12213;BME280;6169;44.158;22.788;2023-02-17T13:38:55;101862.94;;;20.38;21.24
12213;BME280;6169;44.158;22.788;2023-02-17T13:44:19;101867.31;;;19.89;21.75
12213;BME280;6169;44.158;22.788;2023-02-17T13:49:28;101865.28;;;20.51;21.34
12213;BME280;6169;44.158;22.788;2023-02-17T13:54:32;101871.69;;;20.34;21.02
12213;BME280;6169;44.158;22.788;2023-02-17T13:59:34;101856.81;;;20.08;20.80
12213;BME280;6169;44.158;22.788;2023-02-17T14:04:39;101860.84;;;20.01;21.10
12213;BME280;6169;44.158;22.788;2023-02-17T14:09:41;101860.72;;;19.90;21.50
12213;BME280;6169;44.158;22.788;2023-02-17T14:14:44;101861.59;;;20.18;21.54
12213;BME280;6169;44.158;22.788;2023-02-17T14:19:48;101856.81;;;19.64;22.15
12213;BME280;6169;44.158;22.788;2023-02-17T14:24:57;101861.34;;;19.76;22.36
12213;BME280;6169;44.158;22.788;2023-02-17T14:30:00;101852.97;;;19.87;22.18
12213;BME280;6169;44.158;22.788;2023-02-17T14:35:14;101858.38;;;19.77;22.19
12213;BME280;6169;44.158;22.788;2023-02-17T14:40:22;101717.06;;;18.23;22.72
12213;BME280;6169;44.158;22.788;2023-02-17T14:45:25;101842.38;;;19.52;23.15
12213;BME280;6169;44.158;22.788;2023-02-17T14:50:30;101840.84;;;18.89;23.63
12213;BME280;6169;44.158;22.788;2023-02-17T14:55:35;101853.19;;;19.42;23.45
12213;BME280;6169;44.158;22.788;2023-02-17T15:00:39;101844.47;;;19.11;23.82
12213;BME280;6169;44.158;22.788;2023-02-17T15:05:43;101848.16;;;19.00;24.64
12213;BME280;6169;44.158;22.788;2023-02-17T15:10:45;101830.69;;;18.44;24.51
12213;BME280;6169;44.158;22.788;2023-02-17T15:15:48;101847.28;;;19.33;24.49
12213;BME280;6169;44.158;22.788;2023-02-17T15:20:51;101854.34;;;18.45;25.57
12213;BME280;6169;44.158;22.788;2023-02-17T15:25:54;101853.38;;;18.22;26.08
12213;BME280;6169;44.158;22.788;2023-02-17T15:30:56;101858.69;;;18.00;26.13
12213;BME280;6169;44.158;22.788;2023-02-17T15:36:00;101867.66;;;17.72;26.37
12213;BME280;6169;44.158;22.788;2023-02-17T15:41:02;101870.44;;;17.60;27.06
12213;BME280;6169;44.158;22.788;2023-02-17T15:46:11;101879.00;;;17.64;26.96
12213;BME280;6169;44.158;22.788;2023-02-17T15:51:17;101885.31;;;17.17;27.26
12213;BME280;6169;44.158;22.788;2023-02-17T15:56:21;101878.38;;;17.03;27.24
12213;BME280;6169;44.158;22.788;2023-02-17T16:01:27;101884.25;;;17.18;27.61
12213;BME280;6169;44.158;22.788;2023-02-17T16:06:31;101882.69;;;16.99;27.62
12213;BME280;6169;44.158;22.788;2023-02-17T16:11:35;101875.81;;;16.78;27.63
12213;BME280;6169;44.158;22.788;2023-02-17T16:16:41;101876.22;;;16.51;27.96
12213;BME280;6169;44.158;22.788;2023-02-17T16:21:45;101884.59;;;16.68;28.20
12213;BME280;6169;44.158;22.788;2023-02-17T16:26:47;101884.16;;;16.41;28.38
12213;BME280;6169;44.158;22.788;2023-02-17T16:31:49;101880.00;;;16.02;28.77
12213;BME280;6169;44.158;22.788;2023-02-17T16:36:55;101878.22;;;15.77;29.57
12213;BME280;6169;44.158;22.788;2023-02-17T16:41:58;101872.28;;;15.62;30.14
12213;BME280;6169;44.158;22.788;2023-02-17T16:47:00;101874.88;;;15.75;29.86
12213;BME280;6169;44.158;22.788;2023-02-17T16:52:06;101867.75;;;15.56;29.55
12213;BME280;6169;44.158;22.788;2023-02-17T16:57:14;101875.19;;;15.67;29.04
12213;BME280;6169;44.158;22.788;2023-02-17T17:02:18;101872.69;;;15.84;30.74
12213;BME280;6169;44.158;22.788;2023-02-17T17:07:21;101879.50;;;15.13;31.97
12213;BME280;6169;44.158;22.788;2023-02-17T17:12:23;101882.41;;;15.18;32.13
12213;BME280;6169;44.158;22.788;2023-02-17T17:17:26;101885.13;;;14.86;32.00
12213;BME280;6169;44.158;22.788;2023-02-17T17:22:30;101891.47;;;14.80;32.14
12213;BME280;6169;44.158;22.788;2023-02-17T17:27:32;101897.69;;;14.62;32.33
12213;BME280;6169;44.158;22.788;2023-02-17T17:32:35;101898.34;;;14.58;31.94
12213;BME280;6169;44.158;22.788;2023-02-17T17:37:39;101903.06;;;14.37;32.70
12213;BME280;6169;44.158;22.788;2023-02-17T17:42:41;101881.94;;;14.26;32.26
12213;BME280;6169;44.158;22.788;2023-02-17T17:47:44;101893.38;;;14.41;31.45
12213;BME280;6169;44.158;22.788;2023-02-17T17:52:47;101735.19;;;13.46;31.81
12213;BME280;6169;44.158;22.788;2023-02-17T17:57:50;101894.56;;;14.20;31.82
12213;BME280;6169;44.158;22.788;2023-02-17T18:02:53;101894.75;;;14.19;31.87
12213;BME280;6169;44.158;22.788;2023-02-17T18:07:57;101903.22;;;13.97;32.05
12213;BME280;6169;44.158;22.788;2023-02-17T18:12:59;101904.88;;;13.98;32.24
12213;BME280;6169;44.158;22.788;2023-02-17T18:18:02;101897.38;;;13.87;32.14
12213;BME280;6169;44.158;22.788;2023-02-17T18:23:07;101903.63;;;14.07;31.88
12213;BME280;6169;44.158;22.788;2023-02-17T18:28:09;101900.34;;;14.30;31.60
12213;BME280;6169;44.158;22.788;2023-02-17T18:33:12;101897.47;;;14.25;31.71
12213;BME280;6169;44.158;22.788;2023-02-17T18:38:17;101903.59;;;14.14;32.08
12213;BME280;6169;44.158;22.788;2023-02-17T18:43:20;101885.91;;;13.72;32.91
12213;BME280;6169;44.158;22.788;2023-02-17T18:48:23;101887.16;;;13.62;33.29
12213;BME280;6169;44.158;22.788;2023-02-17T18:53:27;101893.44;;;13.63;33.76
12213;BME280;6169;44.158;22.788;2023-02-17T18:58:29;101892.47;;;13.24;33.76
12213;BME280;6169;44.158;22.788;2023-02-17T19:03:31;101898.28;;;12.88;35.52
12213;BME280;6169;44.158;22.788;2023-02-17T19:08:35;101902.66;;;12.69;35.59
12213;BME280;6169;44.158;22.788;2023-02-17T19:13:38;101903.63;;;12.41;36.11
12213;BME280;6169;44.158;22.788;2023-02-17T19:18:41;101897.16;;;12.42;36.06
12213;BME280;6169;44.158;22.788;2023-02-17T19:23:46;101901.75;;;11.94;37.24
12213;BME280;6169;44.158;22.788;2023-02-17T19:28:48;101903.44;;;12.43;36.22
12213;BME280;6169;44.158;22.788;2023-02-17T19:33:51;101889.84;;;12.49;36.20
12213;BME280;6169;44.158;22.788;2023-02-17T19:38:56;101833.88;;;11.94;36.80
12213;BME280;6169;44.158;22.788;2023-02-17T19:43:59;101887.50;;;12.26;36.84
12213;BME280;6169;44.158;22.788;2023-02-17T19:49:02;101888.25;;;12.07;37.55
12213;BME280;6169;44.158;22.788;2023-02-17T19:54:06;101880.88;;;11.59;38.79
12213;BME280;6169;44.158;22.788;2023-02-17T19:59:08;101894.94;;;11.70;38.89
12213;BME280;6169;44.158;22.788;2023-02-17T20:04:10;101886.16;;;11.74;38.93
12213;BME280;6169;44.158;22.788;2023-02-17T20:12:21;101880.75;;;14.09;38.72
12213;BME280;6169;44.158;22.788;2023-02-17T20:18:13;101858.06;;;11.17;38.82
12213;BME280;6169;44.158;22.788;2023-02-17T20:23:15;101856.72;;;11.06;38.26
12213;BME280;6169;44.158;22.788;2023-02-17T20:28:18;101854.34;;;11.25;38.40
12213;BME280;6169;44.158;22.788;2023-02-17T20:33:22;101846.19;;;11.60;37.07
12213;BME280;6169;44.158;22.788;2023-02-17T20:38:24;101843.97;;;11.83;36.76
12213;BME280;6169;44.158;22.788;2023-02-17T20:43:27;101842.03;;;11.64;37.41
12213;BME280;6169;44.158;22.788;2023-02-17T20:48:30;101829.13;;;11.31;38.18
12213;BME280;6169;44.158;22.788;2023-02-17T20:53:33;101847.22;;;11.17;37.92
12213;BME280;6169;44.158;22.788;2023-02-17T20:58:35;101840.09;;;10.88;39.11
12213;BME280;6169;44.158;22.788;2023-02-17T21:03:39;101841.19;;;10.65;39.57
12213;BME280;6169;44.158;22.788;2023-02-17T21:08:41;101838.72;;;10.71;38.94
12213;BME280;6169;44.158;22.788;2023-02-17T21:13:43;101839.69;;;10.35;39.19
12213;BME280;6169;44.158;22.788;2023-02-17T21:18:47;101833.31;;;10.06;39.65
12213;BME280;6169;44.158;22.788;2023-02-17T21:23:49;101835.78;;;10.22;39.71
12213;BME280;6169;44.158;22.788;2023-02-17T21:28:52;101823.75;;;10.47;39.55
12213;BME280;6169;44.158;22.788;2023-02-17T21:33:57;101824.88;;;10.59;39.13
12213;BME280;6169;44.158;22.788;2023-02-17T21:38:59;101817.84;;;10.43;39.71
12213;BME280;6169;44.158;22.788;2023-02-17T21:44:03;101816.78;;;10.94;38.85
12213;BME280;6169;44.158;22.788;2023-02-17T21:49:25;101814.03;;;11.22;38.32
12213;BME280;6169;44.158;22.788;2023-02-17T21:54:27;101808.91;;;11.33;37.47
12213;BME280;6169;44.158;22.788;2023-02-17T21:59:29;101796.59;;;11.44;37.14
12213;BME280;6169;44.158;22.788;2023-02-17T22:04:33;101791.81;;;12.01;35.47
12213;BME280;6169;44.158;22.788;2023-02-17T22:09:35;101787.13;;;11.75;36.42
12213;BME280;6169;44.158;22.788;2023-02-17T22:14:37;101784.41;;;11.27;37.45
12213;BME280;6169;44.158;22.788;2023-02-17T22:19:41;101767.97;;;10.94;38.43
12213;BME280;6169;44.158;22.788;2023-02-17T22:24:43;101768.97;;;10.86;38.40
12213;BME280;6169;44.158;22.788;2023-02-17T22:29:45;101756.69;;;10.90;37.55
12213;BME280;6169;44.158;22.788;2023-02-17T22:34:49;101748.38;;;10.98;37.92
12213;BME280;6169;44.158;22.788;2023-02-17T22:39:51;101744.75;;;10.84;38.36
12213;BME280;6169;44.158;22.788;2023-02-17T22:44:54;101735.31;;;10.74;38.53
12213;BME280;6169;44.158;22.788;2023-02-17T22:49:58;101725.75;;;10.78;37.55
12213;BME280;6169;44.158;22.788;2023-02-17T22:55:00;101732.75;;;10.65;37.89
12213;BME280;6169;44.158;22.788;2023-02-17T23:00:09;101728.88;;;10.75;38.11
12213;BME280;6169;44.158;22.788;2023-02-17T23:05:13;101725.69;;;10.71;37.78
12213;BME280;6169;44.158;22.788;2023-02-17T23:10:15;101730.28;;;10.71;38.01
12213;BME280;6169;44.158;22.788;2023-02-17T23:15:18;101737.47;;;10.50;38.15
12213;BME280;6169;44.158;22.788;2023-02-17T23:20:42;101691.66;;;10.06;38.65
12213;BME280;6169;44.158;22.788;2023-02-17T23:25:47;101737.25;;;10.23;39.08
12213;BME280;6169;44.158;22.788;2023-02-17T23:30:51;101722.72;;;10.31;39.02
12213;BME280;6169;44.158;22.788;2023-02-17T23:35:54;101724.84;;;10.36;39.16
12213;BME280;6169;44.158;22.788;2023-02-17T23:40:57;101707.59;;;10.15;39.76
12213;BME280;6169;44.158;22.788;2023-02-17T23:46:00;101712.97;;;9.87;39.45
12213;BME280;6169;44.158;22.788;2023-02-17T23:51:04;101708.66;;;9.93;39.95
12213;BME280;6169;44.158;22.788;2023-02-17T23:56:10;101721.34;;;9.92;39.41
